sensor_id;sensor_type;location;lat;lon;timestamp;temperature;humidity
25512;DHT22;13414;44.534;18.700;2023-04-21T00:00:45;7.20;99.90
25512;DHT22;13414;44.534;18.700;2023-04-21T00:03:13;7.20;99.90
25512;DHT22;13414;44.534;18.700;2023-04-21T00:05:40;7.10;99.90
25512;DHT22;13414;44.534;18.700;2023-04-21T00:08:08;7.10;99.90
25512;DHT22;13414;44.534;18.700;2023-04-21T00:10:35;7.00;99.90
25512;DHT22;13414;44.534;18.700;2023-04-21T00:13:03;7.00;99.90
25512;DHT22;13414;44.534;18.700;2023-04-21T00:15:30;6.90;99.90
25512;DHT22;13414;44.534;18.700;2023-04-21T00:17:59;6.90;99.90
25512;DHT22;13414;44.534;18.700;2023-04-21T00:20:27;6.80;99.90
25512;DHT22;13414;44.534;18.700;2023-04-21T00:22:54;6.80;99.90
25512;DHT22;13414;44.534;18.700;2023-04-21T00:25:22;6.70;99.90
25512;DHT22;13414;44.534;18.700;2023-04-21T00:27:50;6.70;99.90
25512;DHT22;13414;44.534;18.700;2023-04-21T00:30:17;6.70;99.90
25512;DHT22;13414;44.534;18.700;2023-04-21T00:32:45;6.80;99.90
25512;DHT22;13414;44.534;18.700;2023-04-21T00:35:14;6.80;99.90
25512;DHT22;13414;44.534;18.700;2023-04-21T00:37:41;6.80;99.90
25512;DHT22;13414;44.534;18.700;2023-04-21T00:40:10;6.80;99.90
25512;DHT22;13414;44.534;18.700;2023-04-21T00:42:39;6.80;99.90
25512;DHT22;13414;44.534;18.700;2023-04-21T00:45:07;6.80;99.90
25512;DHT22;13414;44.534;18.700;2023-04-21T00:47:35;6.70;99.90
25512;DHT22;13414;44.534;18.700;2023-04-21T00:50:02;6.70;99.90
25512;DHT22;13414;44.534;18.700;2023-04-21T00:52:33;6.70;99.90
25512;DHT22;13414;44.534;18.700;2023-04-21T00:55:03;6.70;99.90
25512;DHT22;13414;44.534;18.700;2023-04-21T00:57:31;6.70;99.90
25512;DHT22;13414;44.534;18.700;2023-04-21T00:59:58;6.70;99.90
25512;DHT22;13414;44.534;18.700;2023-04-21T01:02:26;6.70;99.90
25512;DHT22;13414;44.534;18.700;2023-04-21T01:04:54;6.60;99.90
25512;DHT22;13414;44.534;18.700;2023-04-21T01:07:24;6.60;99.90
25512;DHT22;13414;44.534;18.700;2023-04-21T01:09:53;6.60;99.90
25512;DHT22;13414;44.534;18.700;2023-04-21T01:12:22;6.60;99.90
25512;DHT22;13414;44.534;18.700;2023-04-21T01:14:49;6.60;99.90
25512;DHT22;13414;44.534;18.700;2023-04-21T01:17:17;6.60;99.90
25512;DHT22;13414;44.534;18.700;2023-04-21T01:19:47;6.60;99.90
25512;DHT22;13414;44.534;18.700;2023-04-21T01:22:16;6.50;99.90
25512;DHT22;13414;44.534;18.700;2023-04-21T01:24:45;6.50;99.90
25512;DHT22;13414;44.534;18.700;2023-04-21T01:27:15;6.50;99.90
25512;DHT22;13414;44.534;18.700;2023-04-21T01:29:44;6.50;99.90
25512;DHT22;13414;44.534;18.700;2023-04-21T01:32:14;6.50;99.90
25512;DHT22;13414;44.534;18.700;2023-04-21T01:34:42;6.40;99.90
25512;DHT22;13414;44.534;18.700;2023-04-21T01:37:10;6.30;99.90
25512;DHT22;13414;44.534;18.700;2023-04-21T01:39:41;6.20;99.90
25512;DHT22;13414;44.534;18.700;2023-04-21T01:42:08;6.30;99.90
25512;DHT22;13414;44.534;18.700;2023-04-21T01:44:37;6.20;99.90
25512;DHT22;13414;44.534;18.700;2023-04-21T01:47:05;6.20;99.90
25512;DHT22;13414;44.534;18.700;2023-04-21T01:49:32;6.20;99.90
25512;DHT22;13414;44.534;18.700;2023-04-21T01:52:00;6.20;99.90
25512;DHT22;13414;44.534;18.700;2023-04-21T01:54:28;6.10;99.90
25512;DHT22;13414;44.534;18.700;2023-04-21T01:56:57;6.00;99.90
25512;DHT22;13414;44.534;18.700;2023-04-21T01:59:24;6.00;99.90
25512;DHT22;13414;44.534;18.700;2023-04-21T02:01:52;6.00;99.90
25512;DHT22;13414;44.534;18.700;2023-04-21T02:04:19;6.10;99.90
25512;DHT22;13414;44.534;18.700;2023-04-21T02:06:47;6.10;99.90
25512;DHT22;13414;44.534;18.700;2023-04-21T02:09:15;6.10;99.90
25512;DHT22;13414;44.534;18.700;2023-04-21T02:11:42;6.10;99.90
25512;DHT22;13414;44.534;18.700;2023-04-21T02:14:11;6.10;99.90
25512;DHT22;13414;44.534;18.700;2023-04-21T02:16:39;6.10;99.90
25512;DHT22;13414;44.534;18.700;2023-04-21T02:19:07;6.00;99.90
25512;DHT22;13414;44.534;18.700;2023-04-21T02:21:35;6.00;99.90
25512;DHT22;13414;44.534;18.700;2023-04-21T02:24:03;5.90;99.90
25512;DHT22;13414;44.534;18.700;2023-04-21T02:26:30;5.90;99.90
25512;DHT22;13414;44.534;18.700;2023-04-21T02:28:59;6.00;99.90
25512;DHT22;13414;44.534;18.700;2023-04-21T02:31:29;6.00;99.90
25512;DHT22;13414;44.534;18.700;2023-04-21T02:33:56;6.00;99.90
25512;DHT22;13414;44.534;18.700;2023-04-21T02:36:24;5.90;99.90
25512;DHT22;13414;44.534;18.700;2023-04-21T02:38:56;5.80;99.90
25512;DHT22;13414;44.534;18.700;2023-04-21T02:41:24;5.70;99.90
25512;DHT22;13414;44.534;18.700;2023-04-21T02:43:52;5.60;99.90
25512;DHT22;13414;44.534;18.700;2023-04-21T02:46:21;5.60;99.90
25512;DHT22;13414;44.534;18.700;2023-04-21T02:48:50;5.60;99.90
25512;DHT22;13414;44.534;18.700;2023-04-21T02:51:18;5.70;99.90
25512;DHT22;13414;44.534;18.700;2023-04-21T02:53:45;5.70;99.90
25512;DHT22;13414;44.534;18.700;2023-04-21T02:56:13;5.70;99.90
25512;DHT22;13414;44.534;18.700;2023-04-21T02:58:41;5.70;99.90
25512;DHT22;13414;44.534;18.700;2023-04-21T03:01:09;5.70;99.90
25512;DHT22;13414;44.534;18.700;2023-04-21T03:03:37;5.70;99.90
25512;DHT22;13414;44.534;18.700;2023-04-21T03:06:06;5.60;99.90
25512;DHT22;13414;44.534;18.700;2023-04-21T03:08:34;5.60;99.90
25512;DHT22;13414;44.534;18.700;2023-04-21T03:11:01;5.60;99.90
25512;DHT22;13414;44.534;18.700;2023-04-21T03:13:29;5.60;99.90
25512;DHT22;13414;44.534;18.700;2023-04-21T03:15:56;5.70;99.90
25512;DHT22;13414;44.534;18.700;2023-04-21T03:18:24;5.60;99.90
25512;DHT22;13414;44.534;18.700;2023-04-21T03:20:58;5.70;99.90
25512;DHT22;13414;44.534;18.700;2023-04-21T03:23:28;5.70;99.90
25512;DHT22;13414;44.534;18.700;2023-04-21T03:25:56;5.60;99.90
25512;DHT22;13414;44.534;18.700;2023-04-21T03:28:23;5.50;99.90
25512;DHT22;13414;44.534;18.700;2023-04-21T03:30:51;5.50;99.90
25512;DHT22;13414;44.534;18.700;2023-04-21T03:33:18;5.50;99.90
25512;DHT22;13414;44.534;18.700;2023-04-21T03:35:46;5.40;99.90
25512;DHT22;13414;44.534;18.700;2023-04-21T03:38:13;5.40;99.90
25512;DHT22;13414;44.534;18.700;2023-04-21T03:40:42;5.40;99.90
25512;DHT22;13414;44.534;18.700;2023-04-21T03:43:10;5.30;99.90
25512;DHT22;13414;44.534;18.700;2023-04-21T03:45:39;5.30;99.90
25512;DHT22;13414;44.534;18.700;2023-04-21T03:48:07;5.30;99.90
25512;DHT22;13414;44.534;18.700;2023-04-21T03:50:34;5.40;99.90
25512;DHT22;13414;44.534;18.700;2023-04-21T03:53:02;5.40;99.90
25512;DHT22;13414;44.534;18.700;2023-04-21T03:55:29;5.40;99.90
25512;DHT22;13414;44.534;18.700;2023-04-21T03:57:58;5.40;99.90
25512;DHT22;13414;44.534;18.700;2023-04-21T04:00:26;5.40;99.90
25512;DHT22;13414;44.534;18.700;2023-04-21T04:02:53;5.40;99.90
25512;DHT22;13414;44.534;18.700;2023-04-21T04:05:21;5.50;99.90
25512;DHT22;13414;44.534;18.700;2023-04-21T04:07:48;5.50;99.90
25512;DHT22;13414;44.534;18.700;2023-04-21T04:10:16;5.50;99.90
25512;DHT22;13414;44.534;18.700;2023-04-21T04:12:43;5.50;99.90
25512;DHT22;13414;44.534;18.700;2023-04-21T04:15:12;5.60;99.90
25512;DHT22;13414;44.534;18.700;2023-04-21T04:17:40;5.60;99.90
25512;DHT22;13414;44.534;18.700;2023-04-21T04:20:08;5.60;99.90
25512;DHT22;13414;44.534;18.700;2023-04-21T04:22:35;5.70;99.90
25512;DHT22;13414;44.534;18.700;2023-04-21T04:25:03;5.70;99.90
25512;DHT22;13414;44.534;18.700;2023-04-21T04:27:31;5.80;99.90
25512;DHT22;13414;44.534;18.700;2023-04-21T04:29:59;5.90;99.90
25512;DHT22;13414;44.534;18.700;2023-04-21T04:32:28;6.00;99.90
25512;DHT22;13414;44.534;18.700;2023-04-21T04:34:56;6.10;99.90
25512;DHT22;13414;44.534;18.700;2023-04-21T04:37:24;6.20;99.90
25512;DHT22;13414;44.534;18.700;2023-04-21T04:39:52;6.40;99.90
25512;DHT22;13414;44.534;18.700;2023-04-21T04:42:20;6.60;99.90
25512;DHT22;13414;44.534;18.700;2023-04-21T04:44:47;6.80;99.90
25512;DHT22;13414;44.534;18.700;2023-04-21T04:47:15;6.90;99.90
25512;DHT22;13414;44.534;18.700;2023-04-21T04:49:44;6.90;99.90
25512;DHT22;13414;44.534;18.700;2023-04-21T04:52:12;6.90;99.90
25512;DHT22;13414;44.534;18.700;2023-04-21T04:54:40;7.10;99.90
25512;DHT22;13414;44.534;18.700;2023-04-21T04:57:08;7.10;99.90
25512;DHT22;13414;44.534;18.700;2023-04-21T04:59:35;7.10;99.90
25512;DHT22;13414;44.534;18.700;2023-04-21T05:02:03;7.30;99.90
25512;DHT22;13414;44.534;18.700;2023-04-21T05:04:30;7.40;99.90
25512;DHT22;13414;44.534;18.700;2023-04-21T05:07:01;7.60;99.90
25512;DHT22;13414;44.534;18.700;2023-04-21T05:09:29;7.70;99.90
25512;DHT22;13414;44.534;18.700;2023-04-21T05:11:56;7.90;99.90
25512;DHT22;13414;44.534;18.700;2023-04-21T05:14:23;7.90;99.90
25512;DHT22;13414;44.534;18.700;2023-04-21T05:16:51;8.00;99.90
25512;DHT22;13414;44.534;18.700;2023-04-21T05:19:18;8.20;99.90
25512;DHT22;13414;44.534;18.700;2023-04-21T05:21:46;8.50;99.90
25512;DHT22;13414;44.534;18.700;2023-04-21T05:24:15;8.70;99.90
25512;DHT22;13414;44.534;18.700;2023-04-21T05:26:50;9.10;99.90
25512;DHT22;13414;44.534;18.700;2023-04-21T05:29:18;9.60;99.90
25512;DHT22;13414;44.534;18.700;2023-04-21T05:31:46;10.00;99.90
25512;DHT22;13414;44.534;18.700;2023-04-21T05:34:13;10.20;99.90
25512;DHT22;13414;44.534;18.700;2023-04-21T05:36:41;10.50;99.90
25512;DHT22;13414;44.534;18.700;2023-04-21T05:39:12;10.70;99.90
25512;DHT22;13414;44.534;18.700;2023-04-21T05:41:43;11.00;99.90
25512;DHT22;13414;44.534;18.700;2023-04-21T05:44:10;11.00;99.90
25512;DHT22;13414;44.534;18.700;2023-04-21T05:46:38;11.20;99.90
25512;DHT22;13414;44.534;18.700;2023-04-21T05:49:06;11.40;99.90
25512;DHT22;13414;44.534;18.700;2023-04-21T05:51:33;11.50;99.90
25512;DHT22;13414;44.534;18.700;2023-04-21T05:54:01;11.70;99.90
25512;DHT22;13414;44.534;18.700;2023-04-21T05:56:29;11.80;99.90
25512;DHT22;13414;44.534;18.700;2023-04-21T05:58:58;11.70;99.90
25512;DHT22;13414;44.534;18.700;2023-04-21T06:01:25;11.60;99.90
25512;DHT22;13414;44.534;18.700;2023-04-21T06:03:53;11.40;99.90
25512;DHT22;13414;44.534;18.700;2023-04-21T06:06:20;11.30;99.90
25512;DHT22;13414;44.534;18.700;2023-04-21T06:08:47;11.10;99.90
25512;DHT22;13414;44.534;18.700;2023-04-21T06:11:15;11.40;99.90
25512;DHT22;13414;44.534;18.700;2023-04-21T06:13:42;11.90;99.90
25512;DHT22;13414;44.534;18.700;2023-04-21T06:16:11;12.30;99.90
25512;DHT22;13414;44.534;18.700;2023-04-21T06:18:39;12.90;99.90
25512;DHT22;13414;44.534;18.700;2023-04-21T06:21:06;13.30;99.90
25512;DHT22;13414;44.534;18.700;2023-04-21T06:23:34;13.60;99.90
25512;DHT22;13414;44.534;18.700;2023-04-21T06:26:02;14.20;99.90
25512;DHT22;13414;44.534;18.700;2023-04-21T06:28:31;14.70;99.90
25512;DHT22;13414;44.534;18.700;2023-04-21T06:30:59;15.10;99.90
25512;DHT22;13414;44.534;18.700;2023-04-21T06:33:29;15.30;99.90
25512;DHT22;13414;44.534;18.700;2023-04-21T06:35:56;15.10;99.90
25512;DHT22;13414;44.534;18.700;2023-04-21T06:38:24;15.10;99.90
25512;DHT22;13414;44.534;18.700;2023-04-21T06:40:52;15.10;99.90
25512;DHT22;13414;44.534;18.700;2023-04-21T06:43:19;15.00;99.90
25512;DHT22;13414;44.534;18.700;2023-04-21T06:45:47;15.40;99.90
25512;DHT22;13414;44.534;18.700;2023-04-21T06:48:15;15.60;99.90
25512;DHT22;13414;44.534;18.700;2023-04-21T06:50:43;15.80;99.90
25512;DHT22;13414;44.534;18.700;2023-04-21T06:53:11;15.90;99.90
25512;DHT22;13414;44.534;18.700;2023-04-21T06:55:39;16.00;99.90
25512;DHT22;13414;44.534;18.700;2023-04-21T06:58:06;16.10;99.90
25512;DHT22;13414;44.534;18.700;2023-04-21T07:00:34;16.20;99.90
25512;DHT22;13414;44.534;18.700;2023-04-21T07:03:01;16.50;99.90
25512;DHT22;13414;44.534;18.700;2023-04-21T07:05:31;16.40;99.90
25512;DHT22;13414;44.534;18.700;2023-04-21T07:08:00;16.40;99.90
25512;DHT22;13414;44.534;18.700;2023-04-21T07:10:30;16.50;99.90
25512;DHT22;13414;44.534;18.700;2023-04-21T07:12:59;16.90;99.90
25512;DHT22;13414;44.534;18.700;2023-04-21T07:15:27;16.90;96.50
25512;DHT22;13414;44.534;18.700;2023-04-21T07:17:54;17.20;96.20
25512;DHT22;13414;44.534;18.700;2023-04-21T07:20:23;17.50;93.70
25512;DHT22;13414;44.534;18.700;2023-04-21T07:22:51;17.30;92.20
25512;DHT22;13414;44.534;18.700;2023-04-21T07:25:20;17.00;92.50
25512;DHT22;13414;44.534;18.700;2023-04-21T07:27:47;16.80;93.70
25512;DHT22;13414;44.534;18.700;2023-04-21T07:30:15;17.00;94.50
25512;DHT22;13414;44.534;18.700;2023-04-21T07:32:43;17.40;92.50
25512;DHT22;13414;44.534;18.700;2023-04-21T07:35:11;17.70;90.70
25512;DHT22;13414;44.534;18.700;2023-04-21T07:37:38;17.70;87.80
25512;DHT22;13414;44.534;18.700;2023-04-21T07:40:07;17.90;86.00
25512;DHT22;13414;44.534;18.700;2023-04-21T07:42:37;17.80;84.10
25512;DHT22;13414;44.534;18.700;2023-04-21T07:45:05;17.40;84.30
25512;DHT22;13414;44.534;18.700;2023-04-21T07:47:33;16.90;86.50
25512;DHT22;13414;44.534;18.700;2023-04-21T07:50:00;17.20;88.20
25512;DHT22;13414;44.534;18.700;2023-04-21T07:52:28;17.40;86.90
25512;DHT22;13414;44.534;18.700;2023-04-21T07:54:55;17.80;85.70
25512;DHT22;13414;44.534;18.700;2023-04-21T07:57:23;18.00;85.00
25512;DHT22;13414;44.534;18.700;2023-04-21T07:59:51;18.10;83.90
25512;DHT22;13414;44.534;18.700;2023-04-21T08:02:19;18.20;84.10
25512;DHT22;13414;44.534;18.700;2023-04-21T08:04:46;18.40;82.30
25512;DHT22;13414;44.534;18.700;2023-04-21T08:07:14;18.60;81.00
25512;DHT22;13414;44.534;18.700;2023-04-21T08:09:41;18.50;79.90
25512;DHT22;13414;44.534;18.700;2023-04-21T08:12:09;18.50;79.80
25512;DHT22;13414;44.534;18.700;2023-04-21T08:14:36;18.50;80.00
25512;DHT22;13414;44.534;18.700;2023-04-21T08:17:05;18.40;79.90
25512;DHT22;13414;44.534;18.700;2023-04-21T08:19:32;18.30;79.70
25512;DHT22;13414;44.534;18.700;2023-04-21T08:22:00;18.50;79.80
25512;DHT22;13414;44.534;18.700;2023-04-21T08:24:27;18.70;78.00
25512;DHT22;13414;44.534;18.700;2023-04-21T08:26:55;18.60;76.70
25512;DHT22;13414;44.534;18.700;2023-04-21T08:29:22;18.80;76.00
25512;DHT22;13414;44.534;18.700;2023-04-21T08:31:50;18.80;75.50
25512;DHT22;13414;44.534;18.700;2023-04-21T08:34:19;19.10;75.40
25512;DHT22;13414;44.534;18.700;2023-04-21T08:36:46;19.50;73.90
25512;DHT22;13414;44.534;18.700;2023-04-21T08:39:13;19.70;72.10
25512;DHT22;13414;44.534;18.700;2023-04-21T08:41:41;19.70;70.50
25512;DHT22;13414;44.534;18.700;2023-04-21T08:44:09;19.70;69.50
25512;DHT22;13414;44.534;18.700;2023-04-21T08:46:38;19.60;68.90
25512;DHT22;13414;44.534;18.700;2023-04-21T08:49:08;19.50;68.30
25512;DHT22;13414;44.534;18.700;2023-04-21T08:51:37;19.70;68.30
25512;DHT22;13414;44.534;18.700;2023-04-21T08:54:05;20.00;67.00
25512;DHT22;13414;44.534;18.700;2023-04-21T08:56:32;20.10;66.60
25512;DHT22;13414;44.534;18.700;2023-04-21T08:59:00;20.40;66.30
25512;DHT22;13414;44.534;18.700;2023-04-21T09:01:28;20.50;65.50
25512;DHT22;13414;44.534;18.700;2023-04-21T09:04:14;20.80;64.80
25512;DHT22;13414;44.534;18.700;2023-04-21T09:06:43;21.00;64.10
25512;DHT22;13414;44.534;18.700;2023-04-21T09:09:11;20.40;63.70
25512;DHT22;13414;44.534;18.700;2023-04-21T09:11:38;20.30;64.60
25512;DHT22;13414;44.534;18.700;2023-04-21T09:14:06;20.30;64.50
25512;DHT22;13414;44.534;18.700;2023-04-21T09:16:35;20.30;65.00
25512;DHT22;13414;44.534;18.700;2023-04-21T09:19:02;20.10;65.00
25512;DHT22;13414;44.534;18.700;2023-04-21T09:21:44;19.60;65.00
25512;DHT22;13414;44.534;18.700;2023-04-21T09:24:12;19.30;66.00
25512;DHT22;13414;44.534;18.700;2023-04-21T09:26:41;19.10;65.60
25512;DHT22;13414;44.534;18.700;2023-04-21T09:29:09;19.00;66.90
25512;DHT22;13414;44.534;18.700;2023-04-21T09:31:36;19.00;67.30
25512;DHT22;13414;44.534;18.700;2023-04-21T09:34:17;19.00;67.10
25512;DHT22;13414;44.534;18.700;2023-04-21T09:36:46;19.10;69.00
25512;DHT22;13414;44.534;18.700;2023-04-21T09:39:14;19.10;71.90
25512;DHT22;13414;44.534;18.700;2023-04-21T09:41:43;19.20;73.80
25512;DHT22;13414;44.534;18.700;2023-04-21T09:44:10;19.10;78.00
25512;DHT22;13414;44.534;18.700;2023-04-21T09:46:41;18.80;83.00
25512;DHT22;13414;44.534;18.700;2023-04-21T09:49:10;18.80;82.80
25512;DHT22;13414;44.534;18.700;2023-04-21T09:51:39;18.90;83.40
25512;DHT22;13414;44.534;18.700;2023-04-21T09:54:14;19.20;83.50
25512;DHT22;13414;44.534;18.700;2023-04-21T09:56:43;19.00;81.80
25512;DHT22;13414;44.534;18.700;2023-04-21T09:59:18;19.10;84.10
25512;DHT22;13414;44.534;18.700;2023-04-21T10:01:47;19.20;90.80
25512;DHT22;13414;44.534;18.700;2023-04-21T10:04:16;19.00;90.90
25512;DHT22;13414;44.534;18.700;2023-04-21T10:06:45;19.00;98.80
25512;DHT22;13414;44.534;18.700;2023-04-21T10:09:15;19.00;99.90
25512;DHT22;13414;44.534;18.700;2023-04-21T10:11:44;19.00;99.90
25512;DHT22;13414;44.534;18.700;2023-04-21T10:14:12;18.80;99.90
25512;DHT22;13414;44.534;18.700;2023-04-21T10:16:40;18.60;99.90
25512;DHT22;13414;44.534;18.700;2023-04-21T10:19:22;18.60;99.90
25512;DHT22;13414;44.534;18.700;2023-04-21T10:21:50;18.70;99.90
25512;DHT22;13414;44.534;18.700;2023-04-21T10:24:20;18.90;99.90
25512;DHT22;13414;44.534;18.700;2023-04-21T10:26:49;18.90;99.90
25512;DHT22;13414;44.534;18.700;2023-04-21T10:29:27;19.00;99.90
25512;DHT22;13414;44.534;18.700;2023-04-21T10:31:56;19.30;94.50
25512;DHT22;13414;44.534;18.700;2023-04-21T10:34:34;19.70;91.20
25512;DHT22;13414;44.534;18.700;2023-04-21T10:37:18;20.00;83.80
25512;DHT22;13414;44.534;18.700;2023-04-21T10:39:51;19.80;79.10
25512;DHT22;13414;44.534;18.700;2023-04-21T10:42:22;19.60;79.60
25512;DHT22;13414;44.534;18.700;2023-04-21T10:44:59;19.60;78.60
25512;DHT22;13414;44.534;18.700;2023-04-21T10:47:34;19.80;77.70
25512;DHT22;13414;44.534;18.700;2023-04-21T10:50:14;20.00;75.40
25512;DHT22;13414;44.534;18.700;2023-04-21T10:52:46;20.30;71.90
25512;DHT22;13414;44.534;18.700;2023-04-21T10:55:19;20.50;70.00
25512;DHT22;13414;44.534;18.700;2023-04-21T10:57:47;20.80;64.70
25512;DHT22;13414;44.534;18.700;2023-04-21T11:00:17;20.90;64.10
25512;DHT22;13414;44.534;18.700;2023-04-21T11:02:55;21.00;64.70
25512;DHT22;13414;44.534;18.700;2023-04-21T11:05:31;21.00;64.20
25512;DHT22;13414;44.534;18.700;2023-04-21T11:08:09;20.70;62.20
25512;DHT22;13414;44.534;18.700;2023-04-21T11:10:48;20.30;63.50
25512;DHT22;13414;44.534;18.700;2023-04-21T11:13:16;20.00;63.70
25512;DHT22;13414;44.534;18.700;2023-04-21T11:15:59;19.90;59.60
25512;DHT22;13414;44.534;18.700;2023-04-21T11:18:37;19.90;58.60
25512;DHT22;13414;44.534;18.700;2023-04-21T11:21:10;19.90;58.30
25512;DHT22;13414;44.534;18.700;2023-04-21T11:23:41;20.00;58.10
25512;DHT22;13414;44.534;18.700;2023-04-21T11:26:09;20.10;57.80
25512;DHT22;13414;44.534;18.700;2023-04-21T11:28:39;20.20;57.40
25512;DHT22;13414;44.534;18.700;2023-04-21T11:31:07;20.40;57.20
25512;DHT22;13414;44.534;18.700;2023-04-21T11:33:35;20.50;57.50
25512;DHT22;13414;44.534;18.700;2023-04-21T11:36:05;20.40;60.70
25512;DHT22;13414;44.534;18.700;2023-04-21T11:38:39;20.30;63.80
25512;DHT22;13414;44.534;18.700;2023-04-21T11:41:09;20.00;65.40
25512;DHT22;13414;44.534;18.700;2023-04-21T11:43:37;19.80;66.20
25512;DHT22;13414;44.534;18.700;2023-04-21T11:46:12;19.80;66.50
25512;DHT22;13414;44.534;18.700;2023-04-21T11:48:39;19.50;66.60
25512;DHT22;13414;44.534;18.700;2023-04-21T11:51:13;19.50;67.40
25512;DHT22;13414;44.534;18.700;2023-04-21T11:53:41;19.40;67.40
25512;DHT22;13414;44.534;18.700;2023-04-21T11:56:10;19.20;66.70
25512;DHT22;13414;44.534;18.700;2023-04-21T11:58:38;19.30;67.40
25512;DHT22;13414;44.534;18.700;2023-04-21T12:01:09;19.40;66.60
25512;DHT22;13414;44.534;18.700;2023-04-21T12:03:36;19.60;66.30
25512;DHT22;13414;44.534;18.700;2023-04-21T12:06:04;19.70;64.90
25512;DHT22;13414;44.534;18.700;2023-04-21T12:08:32;19.60;63.80
25512;DHT22;13414;44.534;18.700;2023-04-21T12:11:01;19.50;63.00
25512;DHT22;13414;44.534;18.700;2023-04-21T12:13:30;19.40;63.20
25512;DHT22;13414;44.534;18.700;2023-04-21T12:16:01;19.30;63.60
25512;DHT22;13414;44.534;18.700;2023-04-21T12:18:31;19.00;65.00
25512;DHT22;13414;44.534;18.700;2023-04-21T12:21:00;19.20;66.00
25512;DHT22;13414;44.534;18.700;2023-04-21T12:23:28;19.50;65.80
25512;DHT22;13414;44.534;18.700;2023-04-21T12:25:56;19.60;65.40
25512;DHT22;13414;44.534;18.700;2023-04-21T12:28:24;19.70;64.90
25512;DHT22;13414;44.534;18.700;2023-04-21T12:30:53;19.90;63.20
25512;DHT22;13414;44.534;18.700;2023-04-21T12:33:21;20.30;62.50
25512;DHT22;13414;44.534;18.700;2023-04-21T12:35:48;20.50;60.00
25512;DHT22;13414;44.534;18.700;2023-04-21T12:38:16;20.60;60.00
25512;DHT22;13414;44.534;18.700;2023-04-21T12:40:43;20.80;58.50
25512;DHT22;13414;44.534;18.700;2023-04-21T12:43:11;21.00;57.50
25512;DHT22;13414;44.534;18.700;2023-04-21T12:45:38;20.90;56.70
25512;DHT22;13414;44.534;18.700;2023-04-21T12:48:07;20.80;56.00
25512;DHT22;13414;44.534;18.700;2023-04-21T12:50:35;20.70;56.10
25512;DHT22;13414;44.534;18.700;2023-04-21T12:53:02;20.50;55.80
25512;DHT22;13414;44.534;18.700;2023-04-21T12:55:30;20.40;53.90
25512;DHT22;13414;44.534;18.700;2023-04-21T12:57:57;20.40;54.90
25512;DHT22;13414;44.534;18.700;2023-04-21T13:00:25;20.60;56.20
25512;DHT22;13414;44.534;18.700;2023-04-21T13:02:53;20.50;55.30
25512;DHT22;13414;44.534;18.700;2023-04-21T13:05:22;20.30;49.90
25512;DHT22;13414;44.534;18.700;2023-04-21T13:07:50;20.20;48.70
25512;DHT22;13414;44.534;18.700;2023-04-21T13:10:17;20.20;47.70
25512;DHT22;13414;44.534;18.700;2023-04-21T13:12:45;20.20;47.10
25512;DHT22;13414;44.534;18.700;2023-04-21T13:15:13;20.20;48.10
25512;DHT22;13414;44.534;18.700;2023-04-21T13:17:40;20.30;47.60
25512;DHT22;13414;44.534;18.700;2023-04-21T13:20:09;20.40;47.50
25512;DHT22;13414;44.534;18.700;2023-04-21T13:22:37;20.70;48.50
25512;DHT22;13414;44.534;18.700;2023-04-21T13:25:06;20.90;46.70
25512;DHT22;13414;44.534;18.700;2023-04-21T13:27:33;20.90;46.20
25512;DHT22;13414;44.534;18.700;2023-04-21T13:30:06;21.00;45.40
25512;DHT22;13414;44.534;18.700;2023-04-21T13:32:34;21.10;45.80
25512;DHT22;13414;44.534;18.700;2023-04-21T13:35:02;21.10;45.10
25512;DHT22;13414;44.534;18.700;2023-04-21T13:37:33;21.00;45.30
25512;DHT22;13414;44.534;18.700;2023-04-21T13:40:04;20.80;45.50
25512;DHT22;13414;44.534;18.700;2023-04-21T13:42:32;20.80;46.60
25512;DHT22;13414;44.534;18.700;2023-04-21T13:44:59;21.10;46.60
25512;DHT22;13414;44.534;18.700;2023-04-21T13:47:28;21.10;46.20
25512;DHT22;13414;44.534;18.700;2023-04-21T13:49:56;21.40;45.60
25512;DHT22;13414;44.534;18.700;2023-04-21T13:52:23;21.50;44.20
25512;DHT22;13414;44.534;18.700;2023-04-21T13:54:52;21.50;44.10
25512;DHT22;13414;44.534;18.700;2023-04-21T13:57:21;21.60;42.00
25512;DHT22;13414;44.534;18.700;2023-04-21T13:59:49;21.70;42.00
25512;DHT22;13414;44.534;18.700;2023-04-21T14:02:17;21.70;42.10
25512;DHT22;13414;44.534;18.700;2023-04-21T14:04:46;21.70;42.20
25512;DHT22;13414;44.534;18.700;2023-04-21T14:07:13;21.60;43.00
25512;DHT22;13414;44.534;18.700;2023-04-21T14:09:43;21.40;43.60
25512;DHT22;13414;44.534;18.700;2023-04-21T14:12:11;21.40;44.50
25512;DHT22;13414;44.534;18.700;2023-04-21T14:14:40;21.30;44.40
25512;DHT22;13414;44.534;18.700;2023-04-21T14:17:07;21.20;44.60
25512;DHT22;13414;44.534;18.700;2023-04-21T14:19:35;21.00;43.60
25512;DHT22;13414;44.534;18.700;2023-04-21T14:22:02;20.80;44.60
25512;DHT22;13414;44.534;18.700;2023-04-21T14:24:29;20.50;43.60
25512;DHT22;13414;44.534;18.700;2023-04-21T14:26:58;20.40;44.80
25512;DHT22;13414;44.534;18.700;2023-04-21T14:29:26;20.20;44.30
25512;DHT22;13414;44.534;18.700;2023-04-21T14:31:55;20.00;44.80
25512;DHT22;13414;44.534;18.700;2023-04-21T14:34:23;20.10;45.60
25512;DHT22;13414;44.534;18.700;2023-04-21T14:36:51;20.00;46.80
25512;DHT22;13414;44.534;18.700;2023-04-21T14:39:18;20.00;47.90
25512;DHT22;13414;44.534;18.700;2023-04-21T14:41:46;19.90;48.90
25512;DHT22;13414;44.534;18.700;2023-04-21T14:44:13;19.80;49.60
25512;DHT22;13414;44.534;18.700;2023-04-21T14:46:41;19.80;50.20
25512;DHT22;13414;44.534;18.700;2023-04-21T14:49:10;19.80;50.40
25512;DHT22;13414;44.534;18.700;2023-04-21T14:51:38;19.70;50.40
25512;DHT22;13414;44.534;18.700;2023-04-21T14:54:07;19.60;49.90
25512;DHT22;13414;44.534;18.700;2023-04-21T14:56:34;19.60;50.10
25512;DHT22;13414;44.534;18.700;2023-04-21T14:59:02;19.50;50.10
25512;DHT22;13414;44.534;18.700;2023-04-21T15:01:29;19.50;49.70
25512;DHT22;13414;44.534;18.700;2023-04-21T15:03:57;19.50;49.10
25512;DHT22;13414;44.534;18.700;2023-04-21T15:06:26;19.50;48.80
25512;DHT22;13414;44.534;18.700;2023-04-21T15:08:54;19.60;49.40
25512;DHT22;13414;44.534;18.700;2023-04-21T15:11:21;19.60;49.30
25512;DHT22;13414;44.534;18.700;2023-04-21T15:13:49;19.60;49.90
25512;DHT22;13414;44.534;18.700;2023-04-21T15:16:17;19.60;49.60
25512;DHT22;13414;44.534;18.700;2023-04-21T15:18:45;19.70;49.60
25512;DHT22;13414;44.534;18.700;2023-04-21T15:21:12;19.60;49.70
25512;DHT22;13414;44.534;18.700;2023-04-21T15:23:41;19.40;49.90
25512;DHT22;13414;44.534;18.700;2023-04-21T15:26:09;19.50;50.30
25512;DHT22;13414;44.534;18.700;2023-04-21T15:28:36;19.50;50.40
25512;DHT22;13414;44.534;18.700;2023-04-21T15:31:05;19.70;50.50